Hauptseite
METAR-TAF:

METAR-TAF

Flughäfen :

Čáslav, Tschechien

Breite: 49-56-23N, Länge: 15-22-55E, Höhe: 242 m

Beobachtung

Neuester Wetterbericht von vor 15 Minuten, um 00:00 UTC
Wind 2 kt aus unterschiedlichen Richtungen
Temperatur 18°C
Luftfeuchtigkeit 94%
Luftdruck 1006 hPa
Sichtweite: 0300 m
Nebel

METAR: LKCV 280000Z VRB02KT 0300 FG VV002 18/17 Q1006 RMK BLACK

Zeit: 02:15 (00:15 UTC)


TAF: fehlend

Wetterbeobachtungen und Prognosen von mehr als 4000 Flughäfen (METAR und TAF Bericht).

Die verfügbaren Stationen werden durch gelbe und rote Markierungen auf der Karte dargestellt.

Führen Sie die Maus auf sie, um den Namen der Station zu sehen.

Darauf klicken, um die Beobachtung von Wetterbeobachtungen und Prognosen zu sehen.

Um die Karte zu ändern : klicken Sie auf den grünen Tasten mit einem schwarzen Kreuz Zum Vergrößern, auf den grünen Button mit einem Gedankenstrich zu verkleinern, oder auf die grünen Pfeile für benachbarte Karten.


METAR-TAF: